Time;durP1;ratioP1;P1;durP2;ratioP2;P2;SDS_P1;SDS_P2;PMS_P1;PMS_P2;Temp;Humidity;BMP_temperature;BMP_pressure;BME280_temperature;BME280_humidity;BME280_pressure;Samples;Min_cycle;Max_cycle;Signal;HPM_P1;HPM_P2
2021/10/05 00:00:22;;;;;;;9.90;7.95;;;15.20;99.00;;;;;;5019451;28;20056;-63
2021/10/05 00:02:48;;;;;;;9.98;8.98;;;15.20;98.90;;;;;;5021038;28;20032;-62
2021/10/05 00:05:14;;;;;;;21.65;18.05;;;15.20;98.90;;;;;;5020059;28;20034;-61
2021/10/05 00:07:40;;;;;;;22.13;19.52;;;15.10;98.90;;;;;;5019925;28;20025;-61
2021/10/05 00:10:07;;;;;;;22.67;20.30;;;15.10;99.00;;;;;;5020800;28;20029;-62
2021/10/05 00:12:33;;;;;;;24.25;21.63;;;15.20;99.10;;;;;;5019299;28;20026;-63
2021/10/05 00:14:59;;;;;;;27.30;23.98;;;15.10;99.10;;;;;;5020273;28;20591;-62
2021/10/05 00:17:25;;;;;;;24.63;21.95;;;15.10;99.10;;;;;;5019858;28;20109;-60
2021/10/05 00:19:51;;;;;;;20.60;17.85;;;15.10;99.20;;;;;;5019015;28;20022;-62
2021/10/05 00:22:17;;;;;;;20.08;17.98;;;15.10;99.30;;;;;;5019633;28;20041;-62
2021/10/05 00:24:42;;;;;;;20.08;17.98;;;15.00;99.30;;;;;;5021267;28;20120;-62
2021/10/05 00:27:08;;;;;;;21.08;18.80;;;15.00;99.50;;;;;;5024661;28;20033;-62
2021/10/05 00:29:34;;;;;;;24.63;20.40;;;15.00;99.50;;;;;;5023362;28;20030;-61
2021/10/05 00:31:59;;;;;;;20.15;16.98;;;15.00;99.50;;;;;;5022452;28;20054;-60
2021/10/05 00:34:25;;;;;;;22.92;19.17;;;15.00;99.50;;;;;;5022962;28;20535;-62
2021/10/05 00:36:52;;;;;;;22.17;18.13;;;15.00;99.60;;;;;;5022793;28;20092;-63
2021/10/05 00:39:18;;;;;;;18.98;16.98;;;15.00;99.60;;;;;;5023726;28;20014;-60
2021/10/05 00:41:44;;;;;;;22.35;17.75;;;15.00;99.70;;;;;;5024164;28;20026;-60
2021/10/05 00:44:09;;;;;;;18.45;16.45;;;15.10;99.70;;;;;;5022482;28;20505;-63
2021/10/05 00:46:35;;;;;;;19.52;16.52;;;15.00;99.70;;;;;;5023985;28;20061;-62
2021/10/05 00:49:02;;;;;;;17.83;15.85;;;15.00;99.80;;;;;;5024677;28;20053;-61
2021/10/05 00:51:28;;;;;;;21.90;16.52;;;15.00;99.90;;;;;;5023826;28;20021;-62
2021/10/05 00:53:54;;;;;;;21.95;17.90;;;15.00;99.90;;;;;;5021863;28;20046;-60
2021/10/05 00:56:21;;;;;;;19.60;14.77;;;15.00;99.90;;;;;;5023209;28;20033;-58
2021/10/05 00:58:47;;;;;;;19.05;15.73;;;15.00;99.90;;;;;;5024406;28;20076;-62
2021/10/05 01:01:13;;;;;;;20.02;16.77;;;15.00;99.90;;;;;;5022053;28;20038;-60
2021/10/05 01:03:39;;;;;;;21.25;16.13;;;15.00;99.90;;;;;;5023418;28;20116;-61
2021/10/05 01:06:05;;;;;;;20.85;16.17;;;15.00;99.90;;;;;;5023680;28;20049;-61
2021/10/05 01:08:32;;;;;;;18.40;14.88;;;15.00;99.90;;;;;;5021771;28;20022;-60
2021/10/05 01:10:58;;;;;;;21.67;16.30;;;14.90;99.90;;;;;;5022802;28;20378;-62
2021/10/05 01:13:24;;;;;;;17.45;14.50;;;14.90;99.90;;;;;;5023538;28;20025;-62
2021/10/05 01:15:50;;;;;;;18.48;15.13;;;14.80;99.90;;;;;;5021671;28;20030;-62
2021/10/05 01:18:15;;;;;;;19.35;14.80;;;14.80;99.90;;;;;;5014005;28;20065;-62
2021/10/05 01:20:52;;;;;;;20.58;15.48;;;14.80;99.90;;;;;;5019581;28;20056;-62
2021/10/05 01:23:18;;;;;;;18.45;14.10;;;14.80;99.90;;;;;;5033131;28;20168;-61
2021/10/05 01:25:43;;;;;;;19.77;14.80;;;14.80;99.90;;;;;;5032902;28;20131;-61
2021/10/05 01:28:09;;;;;;;17.10;13.80;;;14.90;99.90;;;;;;5033186;28;20034;-59
2021/10/05 01:30:34;;;;;;;19.10;14.48;;;14.80;99.90;;;;;;5033036;28;20035;-62
2021/10/05 01:33:00;;;;;;;19.48;13.88;;;14.80;99.90;;;;;;5032749;28;20025;-62
2021/10/05 01:35:26;;;;;;;18.80;14.00;;;14.80;99.90;;;;;;5030286;28;20485;-61
2021/10/05 01:37:51;;;;;;;17.40;14.02;;;14.80;99.90;;;;;;5032368;28;20060;-59
2021/10/05 01:40:17;;;;;;;20.23;14.90;;;14.80;99.90;;;;;;5032876;28;20103;-60
2021/10/05 01:42:42;;;;;;;19.05;15.13;;;14.80;99.90;;;;;;5032720;28;20064;-61
2021/10/05 01:45:08;;;;;;;21.08;16.08;;;14.80;99.90;;;;;;5032182;28;20047;-61
2021/10/05 01:47:34;;;;;;;17.98;14.60;;;14.80;99.90;;;;;;5032500;28;20033;-61
2021/10/05 01:49:59;;;;;;;18.90;14.15;;;14.80;99.90;;;;;;5032325;28;20495;-60
2021/10/05 01:52:25;;;;;;;18.25;14.82;;;14.80;99.90;;;;;;5031786;28;20025;-61
2021/10/05 01:54:51;;;;;;;18.75;14.52;;;14.80;99.90;;;;;;5032636;28;20481;-60
2021/10/05 01:57:16;;;;;;;18.38;13.85;;;14.80;99.90;;;;;;5032596;28;20032;-61
2021/10/05 01:59:42;;;;;;;19.35;14.73;;;14.80;99.90;;;;;;5032505;28;20416;-61
2021/10/05 02:02:08;;;;;;;19.70;15.82;;;14.80;99.90;;;;;;5032034;28;20038;-59
2021/10/05 02:04:33;;;;;;;26.00;19.15;;;14.70;99.90;;;;;;5032553;28;20032;-62
2021/10/05 02:06:59;;;;;;;22.02;15.98;;;14.70;99.90;;;;;;5032262;28;20037;-62
2021/10/05 02:09:25;;;;;;;20.10;14.82;;;14.80;99.90;;;;;;5031734;28;20029;-60
2021/10/05 02:11:51;;;;;;;20.13;14.93;;;14.80;99.90;;;;;;5030750;28;20037;-61
2021/10/05 02:14:16;;;;;;;18.40;13.48;;;14.70;99.90;;;;;;5032559;28;20041;-62
2021/10/05 02:16:42;;;;;;;17.83;13.73;;;14.70;99.90;;;;;;5032437;28;20103;-62
2021/10/05 02:19:09;;;;;;;18.45;14.82;;;14.70;99.90;;;;;;5032208;28;20040;-62
2021/10/05 02:21:35;;;;;;;20.00;13.68;;;14.70;99.90;;;;;;5017734;28;20129;-61
2021/10/05 02:26:45;;;;;;;18.25;12.80;;;14.60;99.90;;;;;;5012461;28;20042;-62
2021/10/05 02:29:10;;;;;;;16.63;12.93;;;14.70;99.90;;;;;;5012342;28;20037;-60
2021/10/05 02:31:36;;;;;;;14.73;12.38;;;14.70;99.90;;;;;;5011506;28;20401;-62
2021/10/05 02:34:02;;;;;;;15.52;12.95;;;14.70;99.90;;;;;;5012149;28;20038;-59
2021/10/05 02:36:28;;;;;;;15.93;13.40;;;14.60;99.90;;;;;;5027913;28;20396;-61
2021/10/05 02:38:53;;;;;;;16.25;12.90;;;14.60;99.90;;;;;;5030826;28;20044;-61
2021/10/05 02:41:19;;;;;;;17.70;13.63;;;14.60;99.90;;;;;;5031309;28;20428;-61
2021/10/05 02:43:45;;;;;;;16.02;13.40;;;14.60;99.90;;;;;;5030593;28;20033;-58
2021/10/05 02:46:10;;;;;;;15.57;12.90;;;14.60;99.90;;;;;;5031644;28;20038;-61
2021/10/05 02:48:36;;;;;;;16.88;13.68;;;14.60;99.90;;;;;;5030677;28;20034;-61
2021/10/05 02:51:02;;;;;;;16.95;13.73;;;14.60;99.90;;;;;;5031087;28;20021;-62
2021/10/05 02:53:28;;;;;;;16.30;13.88;;;14.60;99.90;;;;;;5031373;28;20405;-61
2021/10/05 02:55:54;;;;;;;17.55;14.90;;;14.60;99.90;;;;;;5031461;28;20025;-62
2021/10/05 02:58:20;;;;;;;17.92;14.52;;;14.50;99.90;;;;;;5031399;28;20029;-62
2021/10/05 03:00:46;;;;;;;18.73;14.88;;;14.50;99.90;;;;;;5031400;28;20056;-60
2021/10/05 03:03:11;;;;;;;20.55;15.88;;;14.40;99.90;;;;;;5031476;28;20037;-56
2021/10/05 03:05:37;;;;;;;19.02;15.15;;;14.30;99.90;;;;;;5031512;28;20386;-61
2021/10/05 03:08:07;;;;;;;20.20;16.10;;;14.30;99.90;;;;;;5031164;28;20033;-62
2021/10/05 03:10:33;;;;;;;20.92;16.40;;;14.30;99.90;;;;;;5031073;28;20037;-61
2021/10/05 03:12:59;;;;;;;19.80;15.57;;;14.30;99.90;;;;;;5031037;28;20025;-62
2021/10/05 03:15:25;;;;;;;23.23;16.52;;;14.30;99.90;;;;;;5031417;28;20040;-63
2021/10/05 03:17:50;;;;;;;23.70;17.25;;;14.30;99.90;;;;;;5030862;28;20040;-60
2021/10/05 03:20:16;;;;;;;21.33;16.60;;;14.20;99.90;;;;;;5031202;28;20151;-60
2021/10/05 03:22:41;;;;;;;20.88;17.13;;;14.20;99.90;;;;;;5031013;28;20107;-61
2021/10/05 03:25:07;;;;;;;24.10;16.73;;;14.10;99.90;;;;;;5031218;28;20067;-62
2021/10/05 03:27:35;;;;;;;21.20;17.38;;;14.10;99.90;;;;;;5031104;28;20057;-62
2021/10/05 03:30:03;;;;;;;21.58;16.08;;;14.10;99.90;;;;;;5030971;28;20025;-61
2021/10/05 03:32:29;;;;;;;22.13;17.08;;;14.00;99.90;;;;;;5030729;28;20168;-60
2021/10/05 03:34:54;;;;;;;18.77;15.27;;;14.10;99.90;;;;;;5027547;28;20108;-60
2021/10/05 03:37:20;;;;;;;21.70;17.35;;;14.10;99.90;;;;;;5011029;28;20026;-60
2021/10/05 03:39:45;;;;;;;23.75;16.77;;;14.10;99.90;;;;;;5011449;28;20034;-61
2021/10/05 03:42:11;;;;;;;22.25;16.05;;;14.00;99.90;;;;;;5010738;28;20030;-63
2021/10/05 03:44:37;;;;;;;22.23;16.42;;;14.00;99.90;;;;;;5011149;28;20438;-61
2021/10/05 03:47:03;;;;;;;21.42;15.98;;;13.90;99.90;;;;;;5011146;28;20038;-61
2021/10/05 03:49:28;;;;;;;21.83;16.17;;;13.90;99.90;;;;;;5027406;28;20116;-60
2021/10/05 03:51:54;;;;;;;19.25;15.32;;;13.90;99.90;;;;;;5030582;28;20037;-62
2021/10/05 03:54:19;;;;;;;20.23;15.38;;;13.90;99.90;;;;;;5030699;28;20058;-61
2021/10/05 03:56:45;;;;;;;18.27;15.45;;;13.80;99.90;;;;;;5029495;28;20045;-61
2021/10/05 03:59:15;;;;;;;21.67;15.43;;;13.80;99.90;;;;;;5031233;28;20048;-57
2021/10/05 04:01:42;;;;;;;18.08;14.65;;;13.80;99.90;;;;;;5033180;28;20132;-59
2021/10/05 04:04:07;;;;;;;18.83;14.85;;;13.80;99.90;;;;;;5034866;28;20448;-61
2021/10/05 04:06:33;;;;;;;19.80;15.43;;;13.80;99.90;;;;;;5034710;28;20076;-58
2021/10/05 04:08:58;;;;;;;19.63;14.93;;;13.80;99.90;;;;;;5034558;28;20531;-62
2021/10/05 04:11:24;;;;;;;22.98;16.95;;;13.80;99.90;;;;;;5035117;28;20056;-61
2021/10/05 04:13:49;;;;;;;20.65;15.68;;;13.80;99.90;;;;;;5035646;28;20370;-61
2021/10/05 04:16:15;;;;;;;20.33;15.32;;;13.70;99.90;;;;;;5036404;28;20040;-61
2021/10/05 04:18:40;;;;;;;20.50;15.43;;;13.70;99.90;;;;;;5035948;28;20111;-61
2021/10/05 04:21:07;;;;;;;22.65;16.77;;;13.70;99.90;;;;;;5023927;28;20073;-60
2021/10/05 04:23:33;;;;;;;17.60;14.77;;;13.70;99.90;;;;;;5016104;28;20038;-62
2021/10/05 04:25:58;;;;;;;19.35;15.25;;;13.60;99.90;;;;;;5015526;28;20103;-61
2021/10/05 04:28:24;;;;;;;18.92;15.77;;;13.60;99.90;;;;;;5015553;28;20481;-60
2021/10/05 04:30:49;;;;;;;18.67;15.05;;;13.60;99.90;;;;;;5015450;28;20040;-60
2021/10/05 04:33:15;;;;;;;17.98;14.57;;;13.50;99.90;;;;;;5015298;28;20105;-60
2021/10/05 04:35:40;;;;;;;19.50;14.48;;;13.50;99.90;;;;;;5025191;28;20404;-61
2021/10/05 04:38:07;;;;;;;17.88;13.23;;;13.40;99.90;;;;;;5035606;28;20037;-61
2021/10/05 04:40:32;;;;;;;20.90;14.05;;;13.40;99.90;;;;;;5034048;28;20037;-62
2021/10/05 04:42:58;;;;;;;18.20;13.73;;;13.30;99.90;;;;;;5034860;28;20033;-61
2021/10/05 04:45:24;;;;;;;18.50;14.45;;;13.20;99.90;;;;;;5034076;28;20037;-61
2021/10/05 04:47:49;;;;;;;20.38;15.23;;;13.30;99.90;;;;;;5034505;28;20029;-63
2021/10/05 04:50:15;;;;;;;19.23;14.57;;;13.30;99.90;;;;;;5035022;28;20408;-62
2021/10/05 04:52:42;;;;;;;16.88;13.55;;;13.20;99.90;;;;;;5034063;28;20488;-61
2021/10/05 04:55:08;;;;;;;17.58;14.95;;;13.20;99.90;;;;;;5034654;28;20041;-62
2021/10/05 04:57:34;;;;;;;19.85;14.68;;;13.30;99.90;;;;;;5034589;28;20092;-62
2021/10/05 05:00:00;;;;;;;20.15;14.73;;;13.20;99.90;;;;;;5034768;28;20075;-64
2021/10/05 05:02:25;;;;;;;17.40;14.63;;;13.20;99.90;;;;;;5033308;28;20377;-63
2021/10/05 05:04:51;;;;;;;17.65;14.45;;;13.10;99.90;;;;;;5033298;28;20036;-61
2021/10/05 05:07:17;;;;;;;17.58;14.45;;;13.10;99.90;;;;;;5034612;28;20037;-62
2021/10/05 05:09:42;;;;;;;20.48;15.68;;;13.10;99.90;;;;;;5034461;28;20178;-59
2021/10/05 05:12:08;;;;;;;20.25;14.60;;;13.10;99.90;;;;;;5033040;28;20508;-62
2021/10/05 05:14:34;;;;;;;19.63;15.00;;;13.20;99.90;;;;;;5034345;28;20497;-62
2021/10/05 05:16:59;;;;;;;18.25;14.35;;;13.10;99.90;;;;;;5034454;28;20036;-63
2021/10/05 05:19:25;;;;;;;21.70;15.05;;;13.10;99.90;;;;;;5034786;28;20029;-62
2021/10/05 05:21:51;;;;;;;20.83;15.68;;;13.10;99.90;;;;;;5017362;28;20056;-60
2021/10/05 05:24:16;;;;;;;19.27;14.98;;;13.10;99.90;;;;;;5023534;28;20555;-61
2021/10/05 05:26:42;;;;;;;20.33;15.82;;;13.00;99.90;;;;;;5031976;28;20079;-61
2021/10/05 05:29:08;;;;;;;19.20;14.80;;;13.10;99.90;;;;;;5033486;28;20088;-62
2021/10/05 05:31:33;;;;;;;21.98;16.40;;;13.20;99.90;;;;;;5033629;28;20033;-61
2021/10/05 05:33:59;;;;;;;23.13;16.48;;;13.10;99.90;;;;;;5033518;28;20037;-61
2021/10/05 05:36:25;;;;;;;20.00;14.05;;;13.10;99.90;;;;;;5017833;28;20123;-64
2021/10/05 05:38:51;;;;;;;21.67;15.52;;;13.20;99.90;;;;;;5013077;28;20120;-63
2021/10/05 05:41:16;;;;;;;21.42;15.57;;;13.20;99.90;;;;;;5013913;28;20433;-61
2021/10/05 05:43:42;;;;;;;22.52;14.90;;;13.30;99.90;;;;;;5014536;28;20451;-62
2021/10/05 05:46:07;;;;;;;20.98;13.68;;;13.30;99.90;;;;;;5014004;28;20034;-62
2021/10/05 05:48:33;;;;;;;17.92;14.23;;;13.30;99.90;;;;;;5023174;28;20029;-62
2021/10/05 05:50:59;;;;;;;20.85;15.57;;;13.20;99.90;;;;;;5034461;28;20056;-65
2021/10/05 05:53:24;;;;;;;26.65;17.67;;;13.20;99.90;;;;;;5033491;28;20061;-62
2021/10/05 05:55:50;;;;;;;22.40;16.50;;;13.10;99.90;;;;;;5033219;28;20030;-61
2021/10/05 05:58:17;;;;;;;23.40;16.85;;;13.00;99.90;;;;;;5033439;28;20069;-61
2021/10/05 06:00:44;;;;;;;22.02;17.23;;;13.00;99.90;;;;;;5032617;28;20090;-63
2021/10/05 06:03:13;;;;;;;25.40;17.95;;;13.10;99.90;;;;;;5032112;28;20049;-61
2021/10/05 06:05:40;;;;;;;20.50;17.05;;;13.10;99.90;;;;;;5033238;28;20034;-62
2021/10/05 06:08:06;;;;;;;26.92;19.30;;;13.10;99.90;;;;;;5032604;28;20029;-61
2021/10/05 06:10:32;;;;;;;27.15;18.10;;;13.10;99.90;;;;;;5033238;28;20033;-61
2021/10/05 06:12:58;;;;;;;26.10;19.70;;;13.10;99.90;;;;;;5033189;28;20481;-61
2021/10/05 06:15:24;;;;;;;25.35;19.52;;;13.00;99.90;;;;;;5033139;28;20598;-62
2021/10/05 06:17:50;;;;;;;23.73;18.77;;;12.90;99.90;;;;;;5033211;28;20485;-61
2021/10/05 06:20:22;;;;;;;28.50;19.88;;;13.00;99.90;;;;;;5030865;28;20034;-61
2021/10/05 06:22:49;;;;;;;29.27;20.23;;;13.00;99.90;;;;;;5013671;28;20084;-62
2021/10/05 06:25:17;;;;;;;25.80;20.25;;;12.90;99.90;;;;;;5013738;28;20442;-59
2021/10/05 06:27:43;;;;;;;25.33;19.83;;;13.00;99.90;;;;;;5031852;28;20037;-61
2021/10/05 06:30:11;;;;;;;25.40;19.38;;;13.00;99.90;;;;;;5024900;28;20391;-62
2021/10/05 06:32:37;;;;;;;25.50;19.27;;;13.00;99.90;;;;;;5031191;28;20060;-62
2021/10/05 06:35:03;;;;;;;24.55;18.67;;;13.00;99.90;;;;;;5032892;28;20056;-62
2021/10/05 06:37:29;;;;;;;22.67;18.52;;;12.90;99.90;;;;;;5032019;28;20117;-61
2021/10/05 06:39:55;;;;;;;23.23;18.55;;;13.00;99.90;;;;;;5032607;28;20575;-62
2021/10/05 06:42:20;;;;;;;23.50;18.88;;;12.90;99.90;;;;;;5032060;28;20042;-63
2021/10/05 06:44:46;;;;;;;22.38;17.45;;;12.90;99.90;;;;;;5032851;28;20037;-63
2021/10/05 06:47:11;;;;;;;25.15;19.55;;;12.80;99.90;;;;;;5033565;28;20037;-62
2021/10/05 06:49:37;;;;;;;23.63;18.67;;;12.80;99.90;;;;;;5032584;28;20033;-62
2021/10/05 06:52:07;;;;;;;26.13;19.70;;;12.90;99.90;;;;;;5032455;28;20036;-62
2021/10/05 06:54:33;;;;;;;21.00;18.20;;;12.90;99.90;;;;;;5031637;28;20033;-62
2021/10/05 06:56:58;;;;;;;22.95;18.38;;;12.80;99.90;;;;;;5032889;28;20025;-62
2021/10/05 06:59:24;;;;;;;23.88;18.25;;;12.90;99.90;;;;;;5031440;28;20029;-63
2021/10/05 07:01:50;;;;;;;25.80;18.95;;;12.90;99.90;;;;;;5030232;28;20176;-63
2021/10/05 07:04:15;;;;;;;21.38;16.92;;;12.90;99.90;;;;;;5033209;28;20044;-62
2021/10/05 07:06:42;;;;;;;21.95;17.98;;;12.90;99.90;;;;;;5033125;28;20029;-63
2021/10/05 07:09:07;;;;;;;25.40;18.02;;;12.80;99.90;;;;;;5032410;28;20044;-62
2021/10/05 07:11:34;;;;;;;24.67;18.60;;;12.70;99.90;;;;;;5031770;28;20038;-63
2021/10/05 07:14:00;;;;;;;22.42;18.15;;;12.70;99.90;;;;;;5032731;28;20496;-62
2021/10/05 07:16:26;;;;;;;20.27;17.85;;;12.70;99.90;;;;;;5032922;28;20449;-63
2021/10/05 07:18:52;;;;;;;20.95;17.25;;;12.70;99.90;;;;;;5032553;28;20071;-63
2021/10/05 07:21:18;;;;;;;20.95;15.80;;;12.70;99.90;;;;;;5020172;28;20065;-61
2021/10/05 07:23:43;;;;;;;19.27;16.63;;;12.80;99.90;;;;;;5012513;28;20034;-64
2021/10/05 07:26:09;;;;;;;22.50;16.35;;;12.80;99.90;;;;;;5012192;28;20038;-63
2021/10/05 07:28:35;;;;;;;18.38;14.75;;;12.80;99.90;;;;;;5012505;28;20029;-61
2021/10/05 07:31:00;;;;;;;17.92;14.60;;;12.80;99.90;;;;;;5011825;28;20030;-63
2021/10/05 07:33:27;;;;;;;19.83;15.50;;;12.70;99.90;;;;;;5011711;28;20482;-63
2021/10/05 07:35:53;;;;;;;18.75;15.05;;;12.80;99.90;;;;;;5018612;28;20030;-63
2021/10/05 07:38:19;;;;;;;16.50;14.05;;;12.80;99.90;;;;;;5018951;28;20466;-62
2021/10/05 07:40:45;;;;;;;20.33;15.75;;;12.70;99.90;;;;;;5037685;28;20080;-62
2021/10/05 07:43:11;;;;;;;18.92;14.80;;;12.70;99.90;;;;;;5038289;28;20025;-64
2021/10/05 07:45:37;;;;;;;17.88;14.20;;;12.70;99.90;;;;;;5036621;28;20033;-63
2021/10/05 07:48:04;;;;;;;20.33;14.40;;;12.80;99.90;;;;;;5038225;28;20017;-62
2021/10/05 07:50:31;;;;;;;21.75;13.93;;;12.80;99.90;;;;;;5038175;28;20587;-64
2021/10/05 07:53:01;;;;;;;17.40;12.93;;;12.80;99.90;;;;;;5038025;28;20448;-63
2021/10/05 07:55:29;;;;;;;17.90;13.63;;;12.70;99.90;;;;;;5038677;28;20030;-63
2021/10/05 07:57:55;;;;;;;16.38;14.25;;;12.70;99.90;;;;;;5038280;28;20112;-63
2021/10/05 08:00:21;;;;;;;17.52;13.82;;;12.80;99.90;;;;;;5036368;28;20044;-62
2021/10/05 08:02:47;;;;;;;19.73;15.35;;;12.70;99.90;;;;;;5020653;28;20045;-62
2021/10/05 08:05:15;;;;;;;16.98;13.93;;;12.70;99.90;;;;;;5019223;28;20037;-61
2021/10/05 08:07:44;;;;;;;18.13;14.15;;;12.60;99.90;;;;;;5035535;28;20152;-61
2021/10/05 08:10:11;;;;;;;16.85;13.88;;;12.70;99.90;;;;;;5038211;28;20048;-63
2021/10/05 08:12:37;;;;;;;15.77;13.63;;;12.60;99.90;;;;;;5036668;28;20105;-62
2021/10/05 08:15:03;;;;;;;15.35;13.68;;;12.70;99.90;;;;;;5036874;28;20061;-62
2021/10/05 08:17:29;;;;;;;14.35;12.85;;;12.70;99.90;;;;;;5038190;28;20029;-60
2021/10/05 08:19:54;;;;;;;17.05;13.57;;;12.70;99.90;;;;;;5037771;28;20420;-61
2021/10/05 08:22:20;;;;;;;16.05;14.35;;;12.70;99.90;;;;;;5027506;28;20413;-62
2021/10/05 08:24:46;;;;;;;16.83;13.75;;;12.70;99.90;;;;;;5038568;28;20041;-62
2021/10/05 08:27:12;;;;;;;15.57;13.40;;;12.80;99.90;;;;;;5038545;28;20119;-60
2021/10/05 08:29:39;;;;;;;16.25;14.55;;;12.70;99.90;;;;;;5039266;28;20030;-60
2021/10/05 08:32:06;;;;;;;15.15;13.20;;;12.60;99.90;;;;;;5038158;28;20040;-62
2021/10/05 08:34:32;;;;;;;17.17;13.38;;;12.70;99.90;;;;;;5037977;28;20034;-61
2021/10/05 08:36:57;;;;;;;13.05;11.75;;;12.80;99.90;;;;;;5038067;28;20037;-60
2021/10/05 08:39:23;;;;;;;16.40;13.40;;;12.80;99.90;;;;;;5037604;28;20042;-63
2021/10/05 08:41:49;;;;;;;14.23;12.52;;;12.90;99.90;;;;;;5037569;28;20030;-62
2021/10/05 08:44:16;;;;;;;11.73;10.48;;;12.80;99.90;;;;;;5037583;28;20037;-65
2021/10/05 08:46:41;;;;;;;13.07;11.20;;;12.80;99.90;;;;;;5034860;28;20055;-65
2021/10/05 08:49:08;;;;;;;12.05;10.85;;;12.90;99.90;;;;;;5033668;28;20544;-65
2021/10/05 08:51:34;;;;;;;11.38;9.48;;;12.80;99.90;;;;;;5032459;28;20052;-66
2021/10/05 08:54:00;;;;;;;9.40;8.40;;;12.80;99.90;;;;;;5027668;28;20073;-64
2021/10/05 08:56:26;;;;;;;10.00;9.10;;;12.80;99.90;;;;;;5023794;28;20029;-65
2021/10/05 08:58:52;;;;;;;12.40;9.65;;;12.80;99.90;;;;;;5023400;28;20029;-65
2021/10/05 09:01:35;;;;;;;10.65;9.55;;;12.80;99.90;;;;;;5025198;28;20025;-63
2021/10/05 09:04:03;;;;;;;10.73;9.52;;;12.70;99.90;;;;;;5024193;28;20135;-66
2021/10/05 09:06:30;;;;;;;10.98;9.88;;;12.80;99.90;;;;;;5024318;28;20083;-66
2021/10/05 09:08:56;;;;;;;10.80;9.70;;;12.70;99.90;;;;;;5022827;28;20037;-65
2021/10/05 09:11:27;;;;;;;11.60;8.98;;;12.70;99.90;;;;;;5025102;28;20485;-67
2021/10/05 09:13:55;;;;;;;9.77;8.85;;;12.80;99.90;;;;;;5025085;28;20042;-67
2021/10/05 09:16:29;;;;;;;10.90;9.45;;;12.80;99.90;;;;;;5023012;28;20034;-67
2021/10/05 09:18:55;;;;;;;;;;;12.90;99.90;;;;;;5024472;28;20448;-65
2021/10/05 09:21:22;;;;;;;9.27;8.35;;;12.90;99.90;;;;;;5024478;28;21293;-66
2021/10/05 09:24:00;;;;;;;9.10;8.20;;;12.90;99.90;;;;;;5031007;28;20565;-65
2021/10/05 09:26:38;;;;;;;9.05;8.18;;;12.90;99.90;;;;;;5020997;28;20064;-64
2021/10/05 09:29:13;;;;;;;9.73;7.93;;;13.00;99.90;;;;;;5024122;28;20025;-64
2021/10/05 09:31:47;;;;;;;8.82;8.00;;;13.10;99.90;;;;;;5026062;28;20587;-63
2021/10/05 09:34:12;;;;;;;10.13;9.13;;;13.00;99.90;;;;;;5027932;28;20033;-62
2021/10/05 09:36:38;;;;;;;10.23;8.48;;;12.90;99.90;;;;;;5017233;28;20038;-64
2021/10/05 09:39:03;;;;;;;9.23;8.35;;;13.00;99.90;;;;;;5022993;28;20069;-63
2021/10/05 09:41:29;;;;;;;9.40;8.40;;;13.10;99.90;;;;;;5023329;28;20478;-62
2021/10/05 09:44:00;;;;;;;9.55;8.65;;;13.10;99.90;;;;;;5030382;28;20072;-62
2021/10/05 09:46:25;;;;;;;9.45;8.15;;;13.00;99.90;;;;;;5030146;28;20060;-63
2021/10/05 09:49:03;;;;;;;10.13;8.40;;;13.10;99.90;;;;;;5022801;28;20025;-63
2021/10/05 09:51:29;;;;;;;10.15;9.02;;;13.00;99.90;;;;;;5024967;28;20389;-64
2021/10/05 09:53:57;;;;;;;9.90;8.90;;;12.90;99.90;;;;;;5022315;28;20030;-64
2021/10/05 09:56:26;;;;;;;9.27;8.30;;;13.00;99.90;;;;;;5006996;28;20029;-67
2021/10/05 09:58:54;;;;;;;10.30;9.30;;;12.90;99.90;;;;;;5025682;28;20031;-63
2021/10/05 10:01:20;;;;;;;9.65;8.65;;;12.80;99.90;;;;;;5019239;28;20018;-64
2021/10/05 10:03:47;;;;;;;11.07;8.98;;;12.70;99.90;;;;;;5028535;28;20073;-65
2021/10/05 10:06:14;;;;;;;10.63;9.60;;;12.80;99.90;;;;;;5034077;28;20457;-65
2021/10/05 10:08:46;;;;;;;11.13;10.05;;;12.80;99.90;;;;;;5033375;28;20083;-63
2021/10/05 10:11:11;;;;;;;11.40;9.77;;;12.70;99.90;;;;;;5032748;28;20033;-67
2021/10/05 10:13:38;;;;;;;13.45;11.23;;;12.60;99.90;;;;;;5024276;28;20443;-66
2021/10/05 10:16:04;;;;;;;17.88;13.48;;;12.90;99.90;;;;;;5033925;28;20096;-65
2021/10/05 10:18:29;;;;;;;14.38;12.98;;;12.90;99.90;;;;;;5032094;28;20030;-68
2021/10/05 10:21:10;;;;;;;14.57;12.00;;;13.00;99.90;;;;;;5021967;28;20362;-66
2021/10/05 10:23:40;;;;;;;16.60;13.98;;;12.90;99.90;;;;;;5034530;28;20034;-68
2021/10/05 10:26:09;;;;;;;18.75;13.65;;;12.90;99.90;;;;;;5032964;28;20022;-66
2021/10/05 10:28:39;;;;;;;15.60;13.15;;;12.90;99.90;;;;;;5013997;28;20389;-67
2021/10/05 10:31:08;;;;;;;17.05;14.40;;;13.00;99.90;;;;;;5013068;28;20034;-65
2021/10/05 10:33:47;;;;;;;16.95;14.07;;;13.10;99.90;;;;;;5014897;28;20030;-67
2021/10/05 10:36:28;;;;;;;15.82;14.13;;;13.00;99.90;;;;;;5033377;28;20034;-68
2021/10/05 10:39:07;;;;;;;15.10;13.25;;;13.20;99.90;;;;;;5033053;28;20068;-68
2021/10/05 10:41:33;;;;;;;17.60;14.90;;;13.40;99.90;;;;;;5033142;28;20037;-67
2021/10/05 10:44:02;;;;;;;15.95;14.00;;;13.40;99.90;;;;;;5031609;28;20033;-65
2021/10/05 10:46:31;;;;;;;17.23;14.25;;;13.40;99.90;;;;;;5033432;28;20489;-66
2021/10/05 10:48:59;;;;;;;16.67;14.00;;;13.40;99.90;;;;;;5032885;28;20087;-65
2021/10/05 10:51:29;;;;;;;17.10;15.25;;;13.40;99.90;;;;;;5032350;28;20030;-65
2021/10/05 10:53:57;;;;;;;19.00;15.15;;;13.30;99.90;;;;;;5032746;28;20087;-65
2021/10/05 10:56:31;;;;;;;17.60;14.88;;;13.20;99.90;;;;;;5033131;28;20143;-65
2021/10/05 10:59:05;;;;;;;19.42;15.38;;;13.10;99.90;;;;;;5032384;28;20045;-65
2021/10/05 11:01:37;;;;;;;16.07;14.37;;;13.20;99.90;;;;;;5022605;28;20084;-70
2021/10/05 11:04:04;;;;;;;16.90;15.02;;;13.00;99.90;;;;;;5012666;28;20089;-67
2021/10/05 11:06:30;;;;;;;18.48;16.42;;;13.10;99.90;;;;;;5012951;28;20045;-66
2021/10/05 11:08:57;;;;;;;16.55;14.15;;;12.90;99.90;;;;;;5011075;28;20029;-65
2021/10/05 11:11:43;;;;;;;16.15;14.30;;;13.00;99.90;;;;;;5012904;28;20022;-68
2021/10/05 11:14:14;;;;;;;18.38;15.05;;;12.90;99.90;;;;;;5019405;28;20493;-66
2021/10/05 11:16:41;;;;;;;16.67;14.88;;;13.00;99.90;;;;;;5032706;28;20140;-65
2021/10/05 11:19:11;;;;;;;16.48;14.70;;;13.00;99.90;;;;;;5033147;28;20040;-67
2021/10/05 11:21:40;;;;;;;16.40;14.60;;;13.00;99.90;;;;;;5032843;28;20584;-66
2021/10/05 11:24:07;;;;;;;15.80;13.70;;;13.20;99.90;;;;;;5032155;28;20034;-65
2021/10/05 11:26:35;;;;;;;15.45;12.73;;;13.00;99.90;;;;;;5031992;28;20029;-66
2021/10/05 11:29:02;;;;;;;15.18;13.02;;;13.00;99.90;;;;;;5032388;28;20087;-64
2021/10/05 11:31:48;;;;;;;14.05;12.38;;;13.00;99.90;;;;;;5031584;28;20057;-64
2021/10/05 11:34:17;;;;;;;13.15;11.30;;;13.00;99.90;;;;;;5027713;28;20107;-63
2021/10/05 11:36:43;;;;;;;12.77;11.02;;;13.00;99.90;;;;;;5015461;28;20427;-64
2021/10/05 11:39:09;;;;;;;13.30;10.52;;;13.20;99.90;;;;;;5032266;28;20381;-64
2021/10/05 11:41:42;;;;;;;12.57;9.93;;;13.10;99.90;;;;;;5032664;28;20042;-65
2021/10/05 11:44:18;;;;;;;13.70;11.77;;;13.20;99.90;;;;;;5031323;28;20147;-65
2021/10/05 11:47:02;;;;;;;11.27;10.02;;;13.00;99.90;;;;;;5032671;28;20040;-63
2021/10/05 11:49:31;;;;;;;11.63;10.10;;;13.10;99.90;;;;;;5016535;28;20034;-64
2021/10/05 11:51:57;;;;;;;11.50;10.30;;;13.10;99.90;;;;;;5028002;28;20037;-63
2021/10/05 11:54:29;;;;;;;12.05;10.32;;;13.20;99.90;;;;;;5017451;28;20034;-64
2021/10/05 11:56:58;;;;;;;9.98;8.98;;;13.20;99.90;;;;;;5012666;28;20026;-62
2021/10/05 11:59:33;;;;;;;10.32;9.25;;;13.30;99.90;;;;;;5013340;28;20034;-65
2021/10/05 12:02:07;;;;;;;10.85;9.25;;;13.40;99.90;;;;;;5023525;28;20032;-62
2021/10/05 12:04:34;;;;;;;9.73;8.52;;;13.40;99.90;;;;;;5031038;28;20404;-63
2021/10/05 12:07:23;;;;;;;10.27;9.27;;;13.30;99.90;;;;;;5031452;28;20415;-63
2021/10/05 12:10:07;;;;;;;9.80;8.80;;;13.20;99.90;;;;;;5029867;28;20026;-65
2021/10/05 12:12:40;;;;;;;9.82;8.55;;;13.20;99.90;;;;;;5012417;28;20021;-64
2021/10/05 12:15:17;;;;;;;9.05;8.15;;;13.10;99.90;;;;;;5012699;28;20088;-62
2021/10/05 12:17:43;;;;;;;10.52;9.43;;;13.10;99.90;;;;;;5012400;28;20083;-64
2021/10/05 12:20:14;;;;;;;9.55;8.40;;;13.00;99.90;;;;;;5014955;28;20030;-65
2021/10/05 12:22:44;;;;;;;8.15;7.32;;;13.10;99.90;;;;;;5035600;28;20147;-63
2021/10/05 12:25:15;;;;;;;7.90;7.20;;;13.00;99.90;;;;;;5035981;28;20373;-64
2021/10/05 12:27:46;;;;;;;7.40;6.60;;;13.10;99.90;;;;;;5035913;28;20116;-64
2021/10/05 12:30:15;;;;;;;6.93;6.20;;;13.20;99.90;;;;;;5035957;28;20038;-64
2021/10/05 12:32:58;;;;;;;7.43;6.60;;;13.10;99.90;;;;;;5036321;28;20034;-64